sensor_id;sensor_type;location;lat;lon;timestamp;P1;durP1;ratioP1;P2;durP2;ratioP2
65234;SDS011;51820;48.374;10.930;2022-09-24T00:01:21;13.05;;;7.30;;
65234;SDS011;51820;48.374;10.930;2022-09-24T00:03:51;14.95;;;7.32;;
65234;SDS011;51820;48.374;10.930;2022-09-24T00:06:20;11.70;;;6.95;;
65234;SDS011;51820;48.374;10.930;2022-09-24T00:08:51;15.75;;;7.68;;
65234;SDS011;51820;48.374;10.930;2022-09-24T00:11:21;13.67;;;7.47;;
65234;SDS011;51820;48.374;10.930;2022-09-24T00:13:50;13.77;;;7.97;;
65234;SDS011;51820;48.374;10.930;2022-09-24T00:16:20;14.68;;;7.95;;
65234;SDS011;51820;48.374;10.930;2022-09-24T00:18:51;14.68;;;7.55;;
65234;SDS011;51820;48.374;10.930;2022-09-24T00:21:20;13.05;;;7.45;;
65234;SDS011;51820;48.374;10.930;2022-09-24T00:23:52;12.17;;;7.50;;
65234;SDS011;51820;48.374;10.930;2022-09-24T00:26:22;12.68;;;7.63;;
65234;SDS011;51820;48.374;10.930;2022-09-24T00:29:11;14.80;;;8.05;;
65234;SDS011;51820;48.374;10.930;2022-09-24T00:31:40;12.95;;;7.90;;
65234;SDS011;51820;48.374;10.930;2022-09-24T00:34:09;15.48;;;8.02;;
65234;SDS011;51820;48.374;10.930;2022-09-24T00:36:37;13.13;;;7.80;;
65234;SDS011;51820;48.374;10.930;2022-09-24T00:39:07;16.92;;;8.07;;
65234;SDS011;51820;48.374;10.930;2022-09-24T00:41:36;15.40;;;8.40;;
65234;SDS011;51820;48.374;10.930;2022-09-24T00:47:12;13.43;;;7.00;;
65234;SDS011;51820;48.374;10.930;2022-09-24T00:49:46;13.90;;;7.33;;
65234;SDS011;51820;48.374;10.930;2022-09-24T00:52:15;14.68;;;7.60;;
65234;SDS011;51820;48.374;10.930;2022-09-24T00:54:47;13.60;;;8.23;;
65234;SDS011;51820;48.374;10.930;2022-09-24T00:57:15;13.57;;;7.93;;
65234;SDS011;51820;48.374;10.930;2022-09-24T00:59:44;12.40;;;7.50;;
65234;SDS011;51820;48.374;10.930;2022-09-24T01:02:12;14.83;;;7.77;;
65234;SDS011;51820;48.374;10.930;2022-09-24T01:04:40;13.50;;;7.93;;
65234;SDS011;51820;48.374;10.930;2022-09-24T01:07:09;16.17;;;8.20;;
65234;SDS011;51820;48.374;10.930;2022-09-24T01:09:37;12.93;;;7.57;;
65234;SDS011;51820;48.374;10.930;2022-09-24T01:12:08;14.40;;;7.68;;
65234;SDS011;51820;48.374;10.930;2022-09-24T01:14:48;13.23;;;7.53;;
65234;SDS011;51820;48.374;10.930;2022-09-24T01:17:26;13.75;;;7.63;;
65234;SDS011;51820;48.374;10.930;2022-09-24T01:20:05;12.63;;;7.82;;
65234;SDS011;51820;48.374;10.930;2022-09-24T01:22:48;15.75;;;7.68;;
65234;SDS011;51820;48.374;10.930;2022-09-24T01:25:28;16.13;;;7.88;;
65234;SDS011;51820;48.374;10.930;2022-09-24T01:28:14;16.93;;;7.70;;
65234;SDS011;51820;48.374;10.930;2022-09-24T01:30:56;13.57;;;7.72;;
65234;SDS011;51820;48.374;10.930;2022-09-24T01:33:28;14.50;;;7.78;;
65234;SDS011;51820;48.374;10.930;2022-09-24T01:35:59;17.42;;;7.38;;
65234;SDS011;51820;48.374;10.930;2022-09-24T01:38:35;15.50;;;8.07;;
65234;SDS011;51820;48.374;10.930;2022-09-24T01:41:06;15.47;;;7.80;;
65234;SDS011;51820;48.374;10.930;2022-09-24T01:43:36;15.77;;;7.55;;
65234;SDS011;51820;48.374;10.930;2022-09-24T01:46:06;14.00;;;7.85;;
65234;SDS011;51820;48.374;10.930;2022-09-24T01:48:38;15.38;;;7.45;;
65234;SDS011;51820;48.374;10.930;2022-09-24T01:51:08;14.73;;;7.43;;
65234;SDS011;51820;48.374;10.930;2022-09-24T01:53:41;11.57;;;7.33;;
65234;SDS011;51820;48.374;10.930;2022-09-24T01:56:14;14.57;;;7.10;;
65234;SDS011;51820;48.374;10.930;2022-09-24T01:58:45;13.55;;;7.47;;
65234;SDS011;51820;48.374;10.930;2022-09-24T02:01:20;13.93;;;7.85;;
65234;SDS011;51820;48.374;10.930;2022-09-24T02:03:54;13.48;;;7.68;;
65234;SDS011;51820;48.374;10.930;2022-09-24T02:06:24;12.53;;;7.80;;
65234;SDS011;51820;48.374;10.930;2022-09-24T02:08:57;14.90;;;7.40;;
65234;SDS011;51820;48.374;10.930;2022-09-24T02:11:26;15.15;;;7.78;;
65234;SDS011;51820;48.374;10.930;2022-09-24T02:13:58;13.02;;;7.70;;
65234;SDS011;51820;48.374;10.930;2022-09-24T02:16:32;11.13;;;7.07;;
65234;SDS011;51820;48.374;10.930;2022-09-24T02:19:05;12.50;;;6.73;;
65234;SDS011;51820;48.374;10.930;2022-09-24T02:21:37;14.65;;;7.32;;
65234;SDS011;51820;48.374;10.930;2022-09-24T02:24:09;12.55;;;7.22;;
65234;SDS011;51820;48.374;10.930;2022-09-24T02:26:41;13.00;;;7.15;;
65234;SDS011;51820;48.374;10.930;2022-09-24T02:29:10;15.32;;;7.93;;
65234;SDS011;51820;48.374;10.930;2022-09-24T02:31:41;13.13;;;7.33;;
65234;SDS011;51820;48.374;10.930;2022-09-24T02:34:13;17.20;;;7.70;;
65234;SDS011;51820;48.374;10.930;2022-09-24T02:36:48;14.07;;;7.65;;
65234;SDS011;51820;48.374;10.930;2022-09-24T02:39:18;12.70;;;7.28;;
65234;SDS011;51820;48.374;10.930;2022-09-24T02:41:47;15.80;;;7.22;;
65234;SDS011;51820;48.374;10.930;2022-09-24T02:44:16;14.17;;;7.20;;
65234;SDS011;51820;48.374;10.930;2022-09-24T02:46:46;12.52;;;7.03;;
65234;SDS011;51820;48.374;10.930;2022-09-24T02:49:16;13.07;;;6.85;;
65234;SDS011;51820;48.374;10.930;2022-09-24T02:51:45;13.95;;;7.32;;
65234;SDS011;51820;48.374;10.930;2022-09-24T02:54:13;15.30;;;7.63;;
65234;SDS011;51820;48.374;10.930;2022-09-24T02:56:41;12.33;;;7.03;;
65234;SDS011;51820;48.374;10.930;2022-09-24T02:59:10;12.50;;;7.47;;
65234;SDS011;51820;48.374;10.930;2022-09-24T03:01:38;12.68;;;7.28;;
65234;SDS011;51820;48.374;10.930;2022-09-24T03:04:08;13.65;;;7.40;;
65234;SDS011;51820;48.374;10.930;2022-09-24T03:06:36;13.27;;;7.43;;
65234;SDS011;51820;48.374;10.930;2022-09-24T03:09:05;19.37;;;7.47;;
65234;SDS011;51820;48.374;10.930;2022-09-24T03:11:34;11.63;;;6.43;;
65234;SDS011;51820;48.374;10.930;2022-09-24T03:14:03;11.63;;;6.78;;
65234;SDS011;51820;48.374;10.930;2022-09-24T03:16:31;13.98;;;7.43;;
65234;SDS011;51820;48.374;10.930;2022-09-24T03:19:00;12.50;;;7.63;;
65234;SDS011;51820;48.374;10.930;2022-09-24T03:21:29;14.17;;;7.07;;
65234;SDS011;51820;48.374;10.930;2022-09-24T03:24:01;16.48;;;8.00;;
65234;SDS011;51820;48.374;10.930;2022-09-24T03:26:30;10.73;;;6.57;;
65234;SDS011;51820;48.374;10.930;2022-09-24T03:28:58;13.25;;;7.40;;
65234;SDS011;51820;48.374;10.930;2022-09-24T03:31:26;15.00;;;7.30;;
65234;SDS011;51820;48.374;10.930;2022-09-24T03:33:54;14.60;;;6.93;;
65234;SDS011;51820;48.374;10.930;2022-09-24T03:36:23;11.65;;;7.18;;
65234;SDS011;51820;48.374;10.930;2022-09-24T03:38:54;14.43;;;7.13;;
65234;SDS011;51820;48.374;10.930;2022-09-24T03:41:23;12.65;;;6.50;;
65234;SDS011;51820;48.374;10.930;2022-09-24T03:43:52;17.17;;;7.65;;
65234;SDS011;51820;48.374;10.930;2022-09-24T03:46:20;12.93;;;6.53;;
65234;SDS011;51820;48.374;10.930;2022-09-24T03:48:56;11.15;;;6.80;;
65234;SDS011;51820;48.374;10.930;2022-09-24T03:51:25;16.88;;;6.53;;
65234;SDS011;51820;48.374;10.930;2022-09-24T03:53:55;12.68;;;7.57;;
65234;SDS011;51820;48.374;10.930;2022-09-24T03:56:23;14.23;;;7.40;;
65234;SDS011;51820;48.374;10.930;2022-09-24T03:58:53;11.13;;;6.53;;
65234;SDS011;51820;48.374;10.930;2022-09-24T04:01:27;12.85;;;6.60;;
65234;SDS011;51820;48.374;10.930;2022-09-24T04:04:38;13.30;;;7.07;;
65234;SDS011;51820;48.374;10.930;2022-09-24T04:07:08;13.50;;;6.82;;
65234;SDS011;51820;48.374;10.930;2022-09-24T04:12:35;14.20;;;7.10;;
65234;SDS011;51820;48.374;10.930;2022-09-24T04:15:12;13.07;;;6.95;;
65234;SDS011;51820;48.374;10.930;2022-09-24T04:17:48;13.68;;;6.82;;
65234;SDS011;51820;48.374;10.930;2022-09-24T04:20:17;14.82;;;7.00;;
65234;SDS011;51820;48.374;10.930;2022-09-24T04:22:48;13.98;;;7.35;;
65234;SDS011;51820;48.374;10.930;2022-09-24T04:25:18;14.77;;;6.60;;
65234;SDS011;51820;48.374;10.930;2022-09-24T04:27:51;10.68;;;6.97;;
65234;SDS011;51820;48.374;10.930;2022-09-24T04:30:20;11.65;;;6.82;;
65234;SDS011;51820;48.374;10.930;2022-09-24T04:32:49;11.68;;;6.68;;
65234;SDS011;51820;48.374;10.930;2022-09-24T04:35:17;15.38;;;7.53;;
65234;SDS011;51820;48.374;10.930;2022-09-24T04:37:46;11.07;;;7.03;;
65234;SDS011;51820;48.374;10.930;2022-09-24T04:40:14;12.25;;;6.15;;
65234;SDS011;51820;48.374;10.930;2022-09-24T04:42:45;13.88;;;7.32;;
65234;SDS011;51820;48.374;10.930;2022-09-24T04:45:13;11.00;;;6.60;;
65234;SDS011;51820;48.374;10.930;2022-09-24T04:47:43;10.88;;;6.75;;
65234;SDS011;51820;48.374;10.930;2022-09-24T04:50:11;12.17;;;6.30;;
65234;SDS011;51820;48.374;10.930;2022-09-24T04:52:40;12.18;;;6.90;;
65234;SDS011;51820;48.374;10.930;2022-09-24T04:55:08;16.33;;;7.18;;
65234;SDS011;51820;48.374;10.930;2022-09-24T04:57:37;13.77;;;7.00;;
65234;SDS011;51820;48.374;10.930;2022-09-24T05:00:10;11.73;;;6.90;;
65234;SDS011;51820;48.374;10.930;2022-09-24T05:02:40;12.50;;;6.60;;
65234;SDS011;51820;48.374;10.930;2022-09-24T05:05:09;12.93;;;6.88;;
65234;SDS011;51820;48.374;10.930;2022-09-24T05:07:38;13.93;;;6.43;;
65234;SDS011;51820;48.374;10.930;2022-09-24T05:10:07;12.55;;;6.88;;
65234;SDS011;51820;48.374;10.930;2022-09-24T05:12:36;16.85;;;6.78;;
65234;SDS011;51820;48.374;10.930;2022-09-24T05:15:05;12.20;;;6.90;;
65234;SDS011;51820;48.374;10.930;2022-09-24T05:17:38;10.90;;;6.60;;
65234;SDS011;51820;48.374;10.930;2022-09-24T05:20:08;12.68;;;7.47;;
65234;SDS011;51820;48.374;10.930;2022-09-24T05:22:39;10.82;;;6.57;;
65234;SDS011;51820;48.374;10.930;2022-09-24T05:25:08;11.75;;;6.85;;
65234;SDS011;51820;48.374;10.930;2022-09-24T05:27:42;10.80;;;6.60;;
65234;SDS011;51820;48.374;10.930;2022-09-24T05:30:10;12.07;;;6.72;;
65234;SDS011;51820;48.374;10.930;2022-09-24T05:32:40;11.60;;;6.50;;
65234;SDS011;51820;48.374;10.930;2022-09-24T05:35:09;11.38;;;6.63;;
65234;SDS011;51820;48.374;10.930;2022-09-24T05:37:39;14.18;;;6.43;;
65234;SDS011;51820;48.374;10.930;2022-09-24T05:40:08;11.20;;;6.93;;
65234;SDS011;51820;48.374;10.930;2022-09-24T05:42:58;12.85;;;6.32;;
65234;SDS011;51820;48.374;10.930;2022-09-24T05:45:29;12.77;;;6.30;;
65234;SDS011;51820;48.374;10.930;2022-09-24T05:47:59;11.80;;;6.50;;
65234;SDS011;51820;48.374;10.930;2022-09-24T05:50:28;11.68;;;6.22;;
65234;SDS011;51820;48.374;10.930;2022-09-24T05:53:00;12.40;;;6.67;;
65234;SDS011;51820;48.374;10.930;2022-09-24T05:55:28;13.02;;;6.90;;
65234;SDS011;51820;48.374;10.930;2022-09-24T05:58:01;15.73;;;6.47;;
65234;SDS011;51820;48.374;10.930;2022-09-24T06:00:30;11.80;;;6.00;;
65234;SDS011;51820;48.374;10.930;2022-09-24T06:03:04;13.52;;;6.95;;
65234;SDS011;51820;48.374;10.930;2022-09-24T06:05:37;10.80;;;6.60;;
65234;SDS011;51820;48.374;10.930;2022-09-24T06:08:05;11.02;;;6.50;;
65234;SDS011;51820;48.374;10.930;2022-09-24T06:10:35;13.27;;;6.88;;
65234;SDS011;51820;48.374;10.930;2022-09-24T06:13:03;12.45;;;6.55;;
65234;SDS011;51820;48.374;10.930;2022-09-24T06:15:32;13.10;;;6.30;;
65234;SDS011;51820;48.374;10.930;2022-09-24T06:18:01;11.67;;;6.07;;
65234;SDS011;51820;48.374;10.930;2022-09-24T06:20:31;13.52;;;7.00;;
65234;SDS011;51820;48.374;10.930;2022-09-24T06:22:59;13.20;;;6.65;;
65234;SDS011;51820;48.374;10.930;2022-09-24T06:25:29;10.40;;;6.28;;
65234;SDS011;51820;48.374;10.930;2022-09-24T06:27:58;13.25;;;7.13;;
65234;SDS011;51820;48.374;10.930;2022-09-24T06:30:27;12.43;;;6.50;;
65234;SDS011;51820;48.374;10.930;2022-09-24T06:33:00;11.63;;;6.72;;
65234;SDS011;51820;48.374;10.930;2022-09-24T06:35:33;16.88;;;6.22;;
65234;SDS011;51820;48.374;10.930;2022-09-24T06:38:02;13.52;;;6.38;;
65234;SDS011;51820;48.374;10.930;2022-09-24T06:41:10;13.10;;;6.78;;
65234;SDS011;51820;48.374;10.930;2022-09-24T06:43:38;12.83;;;6.50;;
65234;SDS011;51820;48.374;10.930;2022-09-24T06:46:06;13.52;;;7.22;;
65234;SDS011;51820;48.374;10.930;2022-09-24T06:48:35;13.50;;;6.65;;
65234;SDS011;51820;48.374;10.930;2022-09-24T06:51:08;13.10;;;6.82;;
65234;SDS011;51820;48.374;10.930;2022-09-24T06:53:36;11.90;;;7.13;;
65234;SDS011;51820;48.374;10.930;2022-09-24T06:56:05;13.73;;;6.80;;
65234;SDS011;51820;48.374;10.930;2022-09-24T06:58:33;14.13;;;6.68;;
65234;SDS011;51820;48.374;10.930;2022-09-24T07:01:04;11.25;;;6.68;;
65234;SDS011;51820;48.374;10.930;2022-09-24T07:03:33;14.15;;;6.55;;
65234;SDS011;51820;48.374;10.930;2022-09-24T07:06:04;12.88;;;7.00;;
65234;SDS011;51820;48.374;10.930;2022-09-24T07:08:34;11.70;;;6.83;;
65234;SDS011;51820;48.374;10.930;2022-09-24T07:11:03;13.75;;;7.07;;
65234;SDS011;51820;48.374;10.930;2022-09-24T07:13:31;14.80;;;7.55;;
65234;SDS011;51820;48.374;10.930;2022-09-24T07:16:00;12.90;;;7.43;;
65234;SDS011;51820;48.374;10.930;2022-09-24T07:18:28;12.00;;;6.90;;
65234;SDS011;51820;48.374;10.930;2022-09-24T07:21:02;12.63;;;6.93;;
65234;SDS011;51820;48.374;10.930;2022-09-24T07:23:32;12.68;;;7.20;;
65234;SDS011;51820;48.374;10.930;2022-09-24T07:26:03;15.23;;;7.10;;
65234;SDS011;51820;48.374;10.930;2022-09-24T07:28:31;13.02;;;6.78;;
65234;SDS011;51820;48.374;10.930;2022-09-24T07:31:00;12.30;;;6.85;;
65234;SDS011;51820;48.374;10.930;2022-09-24T07:33:29;14.87;;;6.27;;
65234;SDS011;51820;48.374;10.930;2022-09-24T07:35:58;15.10;;;7.53;;
65234;SDS011;51820;48.374;10.930;2022-09-24T07:38:33;13.23;;;7.40;;
65234;SDS011;51820;48.374;10.930;2022-09-24T07:42:04;11.45;;;6.47;;
65234;SDS011;51820;48.374;10.930;2022-09-24T07:45:05;12.95;;;7.40;;
65234;SDS011;51820;48.374;10.930;2022-09-24T07:52:50;11.20;;;6.72;;
65234;SDS011;51820;48.374;10.930;2022-09-24T07:56:06;12.85;;;7.45;;
65234;SDS011;51820;48.374;10.930;2022-09-24T07:58:34;12.38;;;7.55;;
65234;SDS011;51820;48.374;10.930;2022-09-24T08:01:03;14.25;;;7.95;;
65234;SDS011;51820;48.374;10.930;2022-09-24T08:03:31;15.53;;;8.00;;
65234;SDS011;51820;48.374;10.930;2022-09-24T08:05:59;13.07;;;8.90;;
65234;SDS011;51820;48.374;10.930;2022-09-24T08:08:28;14.93;;;8.23;;
65234;SDS011;51820;48.374;10.930;2022-09-24T08:10:56;14.52;;;8.02;;
65234;SDS011;51820;48.374;10.930;2022-09-24T08:13:26;15.07;;;8.60;;
65234;SDS011;51820;48.374;10.930;2022-09-24T08:15:55;14.50;;;8.37;;
65234;SDS011;51820;48.374;10.930;2022-09-24T08:18:24;13.88;;;8.20;;
65234;SDS011;51820;48.374;10.930;2022-09-24T08:20:53;13.05;;;8.23;;
65234;SDS011;51820;48.374;10.930;2022-09-24T08:23:21;13.63;;;8.65;;
65234;SDS011;51820;48.374;10.930;2022-09-24T08:25:52;13.15;;;8.07;;
65234;SDS011;51820;48.374;10.930;2022-09-24T08:28:20;12.70;;;8.10;;
65234;SDS011;51820;48.374;10.930;2022-09-24T08:30:50;11.55;;;7.43;;
65234;SDS011;51820;48.374;10.930;2022-09-24T08:33:18;11.25;;;6.82;;
65234;SDS011;51820;48.374;10.930;2022-09-24T08:35:46;18.10;;;9.25;;
65234;SDS011;51820;48.374;10.930;2022-09-24T08:38:15;15.50;;;8.32;;
65234;SDS011;51820;48.374;10.930;2022-09-24T08:40:49;14.33;;;6.90;;
65234;SDS011;51820;48.374;10.930;2022-09-24T08:43:25;10.93;;;6.63;;
65234;SDS011;51820;48.374;10.930;2022-09-24T08:46:08;12.68;;;6.03;;
65234;SDS011;51820;48.374;10.930;2022-09-24T08:48:59;9.65;;;5.47;;
65234;SDS011;51820;48.374;10.930;2022-09-24T08:51:29;10.20;;;5.70;;
65234;SDS011;51820;48.374;10.930;2022-09-24T08:54:03;9.40;;;5.13;;
65234;SDS011;51820;48.374;10.930;2022-09-24T08:56:35;32.13;;;5.85;;
65234;SDS011;51820;48.374;10.930;2022-09-24T08:59:08;9.73;;;5.72;;
65234;SDS011;51820;48.374;10.930;2022-09-24T09:01:44;12.32;;;5.70;;
65234;SDS011;51820;48.374;10.930;2022-09-24T09:04:20;10.35;;;6.00;;
65234;SDS011;51820;48.374;10.930;2022-09-24T09:07:01;9.13;;;5.27;;
65234;SDS011;51820;48.374;10.930;2022-09-24T09:09:41;9.43;;;5.72;;
65234;SDS011;51820;48.374;10.930;2022-09-24T09:12:13;12.50;;;6.72;;
65234;SDS011;51820;48.374;10.930;2022-09-24T09:14:45;11.45;;;6.22;;
65234;SDS011;51820;48.374;10.930;2022-09-24T09:17:35;11.57;;;6.68;;
65234;SDS011;51820;48.374;10.930;2022-09-24T09:20:15;14.97;;;6.13;;
65234;SDS011;51820;48.374;10.930;2022-09-24T09:22:53;11.90;;;6.35;;
65234;SDS011;51820;48.374;10.930;2022-09-24T09:25:27;10.85;;;6.53;;
65234;SDS011;51820;48.374;10.930;2022-09-24T09:28:06;11.55;;;6.82;;
65234;SDS011;51820;48.374;10.930;2022-09-24T09:31:01;12.43;;;6.70;;
65234;SDS011;51820;48.374;10.930;2022-09-24T09:33:42;11.17;;;6.50;;
65234;SDS011;51820;48.374;10.930;2022-09-24T09:36:25;12.35;;;6.25;;
65234;SDS011;51820;48.374;10.930;2022-09-24T09:40:11;9.82;;;6.30;;
65234;SDS011;51820;48.374;10.930;2022-09-24T09:42:58;10.23;;;6.38;;
65234;SDS011;51820;48.374;10.930;2022-09-24T09:45:32;15.95;;;7.00;;
65234;SDS011;51820;48.374;10.930;2022-09-24T09:48:05;10.60;;;6.43;;
65234;SDS011;51820;48.374;10.930;2022-09-24T09:50:42;10.30;;;6.70;;
65234;SDS011;51820;48.374;10.930;2022-09-24T09:53:51;11.55;;;6.97;;
65234;SDS011;51820;48.374;10.930;2022-09-24T09:56:35;11.93;;;7.18;;
65234;SDS011;51820;48.374;10.930;2022-09-24T09:59:14;11.90;;;6.45;;
65234;SDS011;51820;48.374;10.930;2022-09-24T10:01:54;11.77;;;6.50;;
65234;SDS011;51820;48.374;10.930;2022-09-24T10:04:45;10.63;;;6.15;;
65234;SDS011;51820;48.374;10.930;2022-09-24T10:07:18;10.60;;;5.97;;
65234;SDS011;51820;48.374;10.930;2022-09-24T10:09:56;9.23;;;5.65;;
65234;SDS011;51820;48.374;10.930;2022-09-24T10:12:25;10.38;;;5.85;;
65234;SDS011;51820;48.374;10.930;2022-09-24T10:14:58;9.63;;;5.70;;
65234;SDS011;51820;48.374;10.930;2022-09-24T10:17:28;10.27;;;5.95;;
65234;SDS011;51820;48.374;10.930;2022-09-24T10:20:00;9.60;;;5.65;;
65234;SDS011;51820;48.374;10.930;2022-09-24T10:22:35;10.45;;;5.18;;
65234;SDS011;51820;48.374;10.930;2022-09-24T10:25:05;10.40;;;5.65;;
65234;SDS011;51820;48.374;10.930;2022-09-24T10:27:34;9.67;;;5.57;;
65234;SDS011;51820;48.374;10.930;2022-09-24T10:30:10;12.38;;;6.43;;
65234;SDS011;51820;48.374;10.930;2022-09-24T10:32:59;14.27;;;6.93;;
65234;SDS011;51820;48.374;10.930;2022-09-24T10:35:29;10.82;;;5.82;;
65234;SDS011;51820;48.374;10.930;2022-09-24T10:38:12;9.77;;;5.80;;
65234;SDS011;51820;48.374;10.930;2022-09-24T10:40:50;10.33;;;6.00;;
65234;SDS011;51820;48.374;10.930;2022-09-24T10:43:23;9.50;;;5.70;;
65234;SDS011;51820;48.374;10.930;2022-09-24T10:45:56;10.13;;;5.53;;
65234;SDS011;51820;48.374;10.930;2022-09-24T10:48:37;10.13;;;5.88;;
65234;SDS011;51820;48.374;10.930;2022-09-24T10:51:17;10.63;;;6.00;;
65234;SDS011;51820;48.374;10.930;2022-09-24T10:53:59;10.80;;;5.63;;
65234;SDS011;51820;48.374;10.930;2022-09-24T10:56:43;9.90;;;5.35;;
65234;SDS011;51820;48.374;10.930;2022-09-24T10:59:23;11.00;;;6.00;;
65234;SDS011;51820;48.374;10.930;2022-09-24T11:02:24;13.30;;;6.50;;
65234;SDS011;51820;48.374;10.930;2022-09-24T11:05:03;9.68;;;6.03;;
65234;SDS011;51820;48.374;10.930;2022-09-24T11:07:47;9.50;;;5.50;;
65234;SDS011;51820;48.374;10.930;2022-09-24T11:10:30;9.63;;;5.90;;
65234;SDS011;51820;48.374;10.930;2022-09-24T11:13:13;11.23;;;6.13;;
65234;SDS011;51820;48.374;10.930;2022-09-24T11:15:57;10.90;;;6.22;;
65234;SDS011;51820;48.374;10.930;2022-09-24T11:18:44;13.82;;;7.07;;
65234;SDS011;51820;48.374;10.930;2022-09-24T11:21:23;10.13;;;5.83;;
65234;SDS011;51820;48.374;10.930;2022-09-24T11:24:09;11.48;;;6.22;;
65234;SDS011;51820;48.374;10.930;2022-09-24T11:26:53;10.27;;;6.00;;
65234;SDS011;51820;48.374;10.930;2022-09-24T11:29:32;10.13;;;6.10;;
65234;SDS011;51820;48.374;10.930;2022-09-24T11:32:12;11.73;;;6.60;;
65234;SDS011;51820;48.374;10.930;2022-09-24T11:34:53;12.07;;;6.87;;
65234;SDS011;51820;48.374;10.930;2022-09-24T11:37:44;12.23;;;6.30;;
65234;SDS011;51820;48.374;10.930;2022-09-24T11:40:23;10.82;;;6.35;;
65234;SDS011;51820;48.374;10.930;2022-09-24T11:43:18;10.23;;;6.05;;
65234;SDS011;51820;48.374;10.930;2022-09-24T11:46:06;12.10;;;6.97;;
65234;SDS011;51820;48.374;10.930;2022-09-24T11:48:47;13.37;;;6.60;;
65234;SDS011;51820;48.374;10.930;2022-09-24T11:51:45;11.82;;;6.35;;
65234;SDS011;51820;48.374;10.930;2022-09-24T11:54:22;13.10;;;6.55;;
65234;SDS011;51820;48.374;10.930;2022-09-24T11:56:58;12.02;;;6.10;;
65234;SDS011;51820;48.374;10.930;2022-09-24T11:59:32;10.73;;;5.97;;
65234;SDS011;51820;48.374;10.930;2022-09-24T12:02:07;12.17;;;7.00;;
65234;SDS011;51820;48.374;10.930;2022-09-24T12:04:47;11.70;;;6.43;;
65234;SDS011;51820;48.374;10.930;2022-09-24T12:07:21;12.30;;;6.45;;
65234;SDS011;51820;48.374;10.930;2022-09-24T12:09:56;12.02;;;6.38;;
65234;SDS011;51820;48.374;10.930;2022-09-24T12:12:28;11.77;;;6.60;;
65234;SDS011;51820;48.374;10.930;2022-09-24T12:15:04;11.53;;;6.17;;
65234;SDS011;51820;48.374;10.930;2022-09-24T12:17:37;12.55;;;6.32;;
65234;SDS011;51820;48.374;10.930;2022-09-24T12:20:14;10.85;;;6.63;;
65234;SDS011;51820;48.374;10.930;2022-09-24T12:22:46;12.57;;;6.47;;
65234;SDS011;51820;48.374;10.930;2022-09-24T12:25:25;11.60;;;6.18;;
65234;SDS011;51820;48.374;10.930;2022-09-24T12:27:55;11.40;;;6.10;;
65234;SDS011;51820;48.374;10.930;2022-09-24T12:30:29;10.77;;;5.53;;
65234;SDS011;51820;48.374;10.930;2022-09-24T12:33:21;9.98;;;5.72;;
65234;SDS011;51820;48.374;10.930;2022-09-24T12:35:58;9.43;;;5.80;;
65234;SDS011;51820;48.374;10.930;2022-09-24T12:38:31;13.15;;;5.70;;
65234;SDS011;51820;48.374;10.930;2022-09-24T12:41:12;11.23;;;6.17;;
65234;SDS011;51820;48.374;10.930;2022-09-24T12:43:50;10.32;;;5.72;;
65234;SDS011;51820;48.374;10.930;2022-09-24T12:46:30;12.00;;;6.07;;
65234;SDS011;51820;48.374;10.930;2022-09-24T12:49:49;12.70;;;5.90;;
65234;SDS011;51820;48.374;10.930;2022-09-24T12:52:31;9.82;;;5.85;;
65234;SDS011;51820;48.374;10.930;2022-09-24T12:55:17;10.07;;;5.83;;
65234;SDS011;51820;48.374;10.930;2022-09-24T12:57:50;10.55;;;5.25;;
65234;SDS011;51820;48.374;10.930;2022-09-24T13:00:38;10.82;;;5.60;;
65234;SDS011;51820;48.374;10.930;2022-09-24T13:06:00;11.48;;;6.03;;
65234;SDS011;51820;48.374;10.930;2022-09-24T13:08:36;9.67;;;5.90;;
65234;SDS011;51820;48.374;10.930;2022-09-24T13:13:58;9.27;;;5.40;;
65234;SDS011;51820;48.374;10.930;2022-09-24T13:16:29;9.32;;;5.70;;
65234;SDS011;51820;48.374;10.930;2022-09-24T13:18:59;11.25;;;5.65;;
65234;SDS011;51820;48.374;10.930;2022-09-24T13:21:28;10.97;;;4.83;;
65234;SDS011;51820;48.374;10.930;2022-09-24T13:23:57;10.38;;;5.32;;
65234;SDS011;51820;48.374;10.930;2022-09-24T13:26:30;9.10;;;4.70;;
65234;SDS011;51820;48.374;10.930;2022-09-24T13:29:00;8.95;;;4.22;;
65234;SDS011;51820;48.374;10.930;2022-09-24T13:31:36;8.35;;;4.35;;
65234;SDS011;51820;48.374;10.930;2022-09-24T13:34:16;7.47;;;4.33;;
65234;SDS011;51820;48.374;10.930;2022-09-24T13:36:47;8.13;;;4.70;;
65234;SDS011;51820;48.374;10.930;2022-09-24T13:39:27;10.63;;;5.00;;
65234;SDS011;51820;48.374;10.930;2022-09-24T13:42:06;9.45;;;5.03;;
65234;SDS011;51820;48.374;10.930;2022-09-24T13:44:44;9.45;;;4.50;;
65234;SDS011;51820;48.374;10.930;2022-09-24T13:47:21;9.33;;;4.83;;
65234;SDS011;51820;48.374;10.930;2022-09-24T13:49:57;8.25;;;4.90;;
65234;SDS011;51820;48.374;10.930;2022-09-24T13:52:34;8.23;;;4.32;;
65234;SDS011;51820;48.374;10.930;2022-09-24T13:55:05;9.68;;;4.32;;
65234;SDS011;51820;48.374;10.930;2022-09-24T13:57:42;8.18;;;4.15;;
65234;SDS011;51820;48.374;10.930;2022-09-24T14:00:15;8.87;;;4.30;;
65234;SDS011;51820;48.374;10.930;2022-09-24T14:02:56;8.90;;;4.40;;
65234;SDS011;51820;48.374;10.930;2022-09-24T14:05:32;7.43;;;4.07;;
65234;SDS011;51820;48.374;10.930;2022-09-24T14:08:03;8.93;;;4.20;;
65234;SDS011;51820;48.374;10.930;2022-09-24T14:10:34;7.22;;;3.90;;
65234;SDS011;51820;48.374;10.930;2022-09-24T14:13:08;8.27;;;4.23;;
65234;SDS011;51820;48.374;10.930;2022-09-24T14:15:51;11.10;;;4.68;;
65234;SDS011;51820;48.374;10.930;2022-09-24T14:18:21;9.82;;;4.22;;
65234;SDS011;51820;48.374;10.930;2022-09-24T14:20:53;7.68;;;4.35;;
65234;SDS011;51820;48.374;10.930;2022-09-24T14:23:25;7.68;;;4.05;;
65234;SDS011;51820;48.374;10.930;2022-09-24T14:25:57;9.33;;;3.83;;
65234;SDS011;51820;48.374;10.930;2022-09-24T14:28:26;8.60;;;3.90;;
65234;SDS011;51820;48.374;10.930;2022-09-24T14:30:58;9.98;;;4.13;;
65234;SDS011;51820;48.374;10.930;2022-09-24T14:33:29;7.47;;;3.58;;
65234;SDS011;51820;48.374;10.930;2022-09-24T14:36:00;7.65;;;3.97;;
65234;SDS011;51820;48.374;10.930;2022-09-24T14:38:30;8.93;;;3.83;;
65234;SDS011;51820;48.374;10.930;2022-09-24T14:41:01;7.15;;;3.60;;
65234;SDS011;51820;48.374;10.930;2022-09-24T14:43:36;8.50;;;4.35;;
65234;SDS011;51820;48.374;10.930;2022-09-24T14:46:13;9.23;;;3.47;;
65234;SDS011;51820;48.374;10.930;2022-09-24T14:48:47;7.32;;;3.50;;
65234;SDS011;51820;48.374;10.930;2022-09-24T14:51:24;8.43;;;3.60;;
65234;SDS011;51820;48.374;10.930;2022-09-24T14:53:57;6.80;;;3.42;;
65234;SDS011;51820;48.374;10.930;2022-09-24T14:56:32;10.18;;;3.80;;
65234;SDS011;51820;48.374;10.930;2022-09-24T14:59:11;8.45;;;3.42;;
65234;SDS011;51820;48.374;10.930;2022-09-24T15:01:41;7.50;;;3.65;;
65234;SDS011;51820;48.374;10.930;2022-09-24T15:04:14;7.50;;;3.43;;
65234;SDS011;51820;48.374;10.930;2022-09-24T15:06:49;7.70;;;3.42;;
65234;SDS011;51820;48.374;10.930;2022-09-24T15:09:19;8.95;;;4.00;;
65234;SDS011;51820;48.374;10.930;2022-09-24T15:11:54;9.43;;;4.45;;
65234;SDS011;51820;48.374;10.930;2022-09-24T15:14:33;12.25;;;4.10;;
65234;SDS011;51820;48.374;10.930;2022-09-24T15:17:07;11.73;;;3.80;;
65234;SDS011;51820;48.374;10.930;2022-09-24T15:19:38;9.48;;;3.53;;
65234;SDS011;51820;48.374;10.930;2022-09-24T15:22:11;9.02;;;4.00;;